Zouila, Tunisia
Current Conditions -  °F | °C
As of 7:30 PM on Monday 22 Dec 2014 (Local Time) from DTMB Reporting Station
Few Clouds Few Clouds  
Wind Chill: 61°   Ceiling: Unl
Heat Index: 61°   Visibility: 6mi
Dew Point: 48°   Wind: 9mph
Humidity: 63%   Direction: 10°N
Pressure: 30.48"   Gusts: NA
Location:  35.5°N, 11.06°E
Report Text: DTMB 221830Z 01008KT 9999 FEW026 16/09 Q1032 NOSIG
Loading
Personal Weather Stations






























Interactive Weather Map New forecast layout! Learn more

10-Day Weather Forecast

Advertisements
Track Severe Weather on mobile